sensor_id;sensor_type;location;lat;lon;timestamp;P1;durP1;ratioP1;P2;durP2;ratioP2
24713;SDS011;12820;51.580;5.010;2023-04-21T00:02:00;28.25;;;21.15;;
24713;SDS011;12820;51.580;5.010;2023-04-21T00:07:03;28.48;;;21.10;;
24713;SDS011;12820;51.580;5.010;2023-04-21T00:12:05;34.72;;;24.23;;
24713;SDS011;12820;51.580;5.010;2023-04-21T00:17:07;36.40;;;24.85;;
24713;SDS011;12820;51.580;5.010;2023-04-21T00:22:09;37.25;;;24.77;;
24713;SDS011;12820;51.580;5.010;2023-04-21T00:27:15;34.65;;;24.80;;
24713;SDS011;12820;51.580;5.010;2023-04-21T00:32:18;37.38;;;26.10;;
24713;SDS011;12820;51.580;5.010;2023-04-21T00:37:20;39.03;;;25.98;;
24713;SDS011;12820;51.580;5.010;2023-04-21T00:42:23;40.08;;;25.85;;
24713;SDS011;12820;51.580;5.010;2023-04-21T00:47:25;42.15;;;27.45;;
24713;SDS011;12820;51.580;5.010;2023-04-21T00:52:28;41.22;;;27.63;;
24713;SDS011;12820;51.580;5.010;2023-04-21T00:57:31;41.63;;;27.70;;
24713;SDS011;12820;51.580;5.010;2023-04-21T01:02:34;40.10;;;27.40;;
24713;SDS011;12820;51.580;5.010;2023-04-21T01:07:38;46.42;;;28.67;;
24713;SDS011;12820;51.580;5.010;2023-04-21T01:12:41;42.40;;;28.40;;
24713;SDS011;12820;51.580;5.010;2023-04-21T01:17:47;42.63;;;28.63;;
24713;SDS011;12820;51.580;5.010;2023-04-21T01:22:50;42.65;;;28.02;;
24713;SDS011;12820;51.580;5.010;2023-04-21T01:27:52;43.55;;;28.23;;
24713;SDS011;12820;51.580;5.010;2023-04-21T01:32:55;46.22;;;29.15;;
24713;SDS011;12820;51.580;5.010;2023-04-21T01:38:00;45.58;;;28.55;;
24713;SDS011;12820;51.580;5.010;2023-04-21T01:43:02;44.13;;;28.02;;
24713;SDS011;12820;51.580;5.010;2023-04-21T01:48:05;39.17;;;26.98;;
24713;SDS011;12820;51.580;5.010;2023-04-21T01:53:07;36.90;;;23.75;;
24713;SDS011;12820;51.580;5.010;2023-04-21T01:58:10;34.90;;;22.40;;
24713;SDS011;12820;51.580;5.010;2023-04-21T02:03:12;35.28;;;22.65;;
24713;SDS011;12820;51.580;5.010;2023-04-21T02:08:15;37.75;;;24.20;;
24713;SDS011;12820;51.580;5.010;2023-04-21T02:13:17;36.90;;;25.45;;
24713;SDS011;12820;51.580;5.010;2023-04-21T02:18:20;39.30;;;26.23;;
24713;SDS011;12820;51.580;5.010;2023-04-21T02:23:22;36.25;;;24.52;;
24713;SDS011;12820;51.580;5.010;2023-04-21T02:28:24;37.45;;;24.50;;
24713;SDS011;12820;51.580;5.010;2023-04-21T02:33:26;37.30;;;23.67;;
24713;SDS011;12820;51.580;5.010;2023-04-21T02:38:28;42.08;;;23.80;;
24713;SDS011;12820;51.580;5.010;2023-04-21T02:43:31;35.90;;;23.30;;
24713;SDS011;12820;51.580;5.010;2023-04-21T02:48:33;38.60;;;25.05;;
24713;SDS011;12820;51.580;5.010;2023-04-21T02:53:36;39.83;;;24.23;;
24713;SDS011;12820;51.580;5.010;2023-04-21T02:58:38;42.15;;;25.50;;
24713;SDS011;12820;51.580;5.010;2023-04-21T03:03:41;37.35;;;22.02;;
24713;SDS011;12820;51.580;5.010;2023-04-21T03:08:45;36.15;;;22.77;;
24713;SDS011;12820;51.580;5.010;2023-04-21T03:13:47;36.97;;;22.85;;
24713;SDS011;12820;51.580;5.010;2023-04-21T03:18:49;37.80;;;23.60;;
24713;SDS011;12820;51.580;5.010;2023-04-21T03:23:52;38.42;;;23.42;;
24713;SDS011;12820;51.580;5.010;2023-04-21T03:28:54;39.05;;;24.45;;
24713;SDS011;12820;51.580;5.010;2023-04-21T03:33:57;39.83;;;24.15;;
24713;SDS011;12820;51.580;5.010;2023-04-21T03:39:00;42.47;;;25.95;;
24713;SDS011;12820;51.580;5.010;2023-04-21T03:44:20;42.58;;;25.27;;
24713;SDS011;12820;51.580;5.010;2023-04-21T03:49:22;39.58;;;25.63;;
24713;SDS011;12820;51.580;5.010;2023-04-21T03:54:24;41.30;;;26.52;;
24713;SDS011;12820;51.580;5.010;2023-04-21T03:59:26;45.83;;;27.33;;
24713;SDS011;12820;51.580;5.010;2023-04-21T04:04:28;47.40;;;27.77;;
24713;SDS011;12820;51.580;5.010;2023-04-21T04:09:32;47.53;;;28.17;;
24713;SDS011;12820;51.580;5.010;2023-04-21T04:14:34;52.92;;;29.25;;
24713;SDS011;12820;51.580;5.010;2023-04-21T04:19:36;49.40;;;29.20;;
24713;SDS011;12820;51.580;5.010;2023-04-21T04:24:38;54.15;;;31.50;;
24713;SDS011;12820;51.580;5.010;2023-04-21T04:29:40;53.05;;;30.45;;
24713;SDS011;12820;51.580;5.010;2023-04-21T04:34:43;56.55;;;30.88;;
24713;SDS011;12820;51.580;5.010;2023-04-21T04:39:46;55.25;;;32.05;;
24713;SDS011;12820;51.580;5.010;2023-04-21T04:44:51;58.60;;;32.80;;
24713;SDS011;12820;51.580;5.010;2023-04-21T04:49:54;60.05;;;34.28;;
24713;SDS011;12820;51.580;5.010;2023-04-21T04:54:56;60.95;;;34.83;;
24713;SDS011;12820;51.580;5.010;2023-04-21T04:59:58;60.92;;;34.08;;
24713;SDS011;12820;51.580;5.010;2023-04-21T05:05:00;66.72;;;36.45;;
24713;SDS011;12820;51.580;5.010;2023-04-21T05:10:03;65.28;;;36.55;;
24713;SDS011;12820;51.580;5.010;2023-04-21T05:15:06;67.03;;;39.58;;
24713;SDS011;12820;51.580;5.010;2023-04-21T05:20:08;69.03;;;37.90;;
24713;SDS011;12820;51.580;5.010;2023-04-21T05:25:11;79.60;;;43.58;;
24713;SDS011;12820;51.580;5.010;2023-04-21T05:30:16;84.22;;;43.28;;
24713;SDS011;12820;51.580;5.010;2023-04-21T05:35:18;88.85;;;43.58;;
24713;SDS011;12820;51.580;5.010;2023-04-21T05:40:20;82.72;;;42.33;;
24713;SDS011;12820;51.580;5.010;2023-04-21T05:45:22;88.28;;;44.50;;
24713;SDS011;12820;51.580;5.010;2023-04-21T05:50:24;82.32;;;44.53;;
24713;SDS011;12820;51.580;5.010;2023-04-21T05:55:29;87.28;;;44.38;;
24713;SDS011;12820;51.580;5.010;2023-04-21T06:00:31;76.88;;;42.63;;
24713;SDS011;12820;51.580;5.010;2023-04-21T06:05:33;80.75;;;43.85;;
24713;SDS011;12820;51.580;5.010;2023-04-21T06:10:36;78.45;;;43.20;;
24713;SDS011;12820;51.580;5.010;2023-04-21T06:15:38;78.10;;;42.92;;
24713;SDS011;12820;51.580;5.010;2023-04-21T06:20:40;74.25;;;42.55;;
24713;SDS011;12820;51.580;5.010;2023-04-21T06:25:42;77.82;;;42.60;;
24713;SDS011;12820;51.580;5.010;2023-04-21T06:30:44;75.53;;;43.25;;
24713;SDS011;12820;51.580;5.010;2023-04-21T06:35:46;75.72;;;42.17;;
24713;SDS011;12820;51.580;5.010;2023-04-21T06:40:49;70.32;;;41.05;;
24713;SDS011;12820;51.580;5.010;2023-04-21T06:45:51;71.35;;;39.95;;
24713;SDS011;12820;51.580;5.010;2023-04-21T06:50:53;62.53;;;38.55;;
24713;SDS011;12820;51.580;5.010;2023-04-21T06:55:55;67.32;;;40.25;;
24713;SDS011;12820;51.580;5.010;2023-04-21T07:00:58;68.63;;;39.88;;
24713;SDS011;12820;51.580;5.010;2023-04-21T07:06:00;66.78;;;40.33;;
24713;SDS011;12820;51.580;5.010;2023-04-21T07:11:02;66.68;;;40.55;;
24713;SDS011;12820;51.580;5.010;2023-04-21T07:16:04;67.88;;;39.38;;
24713;SDS011;12820;51.580;5.010;2023-04-21T07:21:06;58.05;;;37.53;;
24713;SDS011;12820;51.580;5.010;2023-04-21T07:26:08;60.75;;;38.75;;
24713;SDS011;12820;51.580;5.010;2023-04-21T07:31:11;59.75;;;37.50;;
24713;SDS011;12820;51.580;5.010;2023-04-21T07:36:13;62.83;;;38.78;;
24713;SDS011;12820;51.580;5.010;2023-04-21T07:41:16;54.60;;;35.50;;
24713;SDS011;12820;51.580;5.010;2023-04-21T07:46:18;55.03;;;36.50;;
24713;SDS011;12820;51.580;5.010;2023-04-21T07:51:21;55.78;;;37.90;;
24713;SDS011;12820;51.580;5.010;2023-04-21T07:56:24;52.75;;;35.17;;
24713;SDS011;12820;51.580;5.010;2023-04-21T08:01:26;50.47;;;33.95;;
24713;SDS011;12820;51.580;5.010;2023-04-21T08:06:29;45.33;;;27.38;;
24713;SDS011;12820;51.580;5.010;2023-04-21T08:11:31;43.95;;;28.25;;
24713;SDS011;12820;51.580;5.010;2023-04-21T08:16:33;47.50;;;28.58;;
24713;SDS011;12820;51.580;5.010;2023-04-21T08:21:36;44.70;;;28.70;;
24713;SDS011;12820;51.580;5.010;2023-04-21T08:26:38;35.72;;;25.23;;
24713;SDS011;12820;51.580;5.010;2023-04-21T08:31:41;33.90;;;23.20;;
24713;SDS011;12820;51.580;5.010;2023-04-21T08:36:44;35.40;;;23.63;;
24713;SDS011;12820;51.580;5.010;2023-04-21T08:41:47;31.75;;;22.45;;
24713;SDS011;12820;51.580;5.010;2023-04-21T08:46:50;33.25;;;23.20;;
24713;SDS011;12820;51.580;5.010;2023-04-21T08:51:55;31.48;;;21.33;;
24713;SDS011;12820;51.580;5.010;2023-04-21T08:56:58;33.60;;;23.65;;
24713;SDS011;12820;51.580;5.010;2023-04-21T09:02:16;33.17;;;22.95;;
24713;SDS011;12820;51.580;5.010;2023-04-21T09:12:33;31.58;;;22.30;;
24713;SDS011;12820;51.580;5.010;2023-04-21T09:17:35;31.15;;;21.50;;
24713;SDS011;12820;51.580;5.010;2023-04-21T09:22:39;31.67;;;21.00;;
24713;SDS011;12820;51.580;5.010;2023-04-21T09:27:41;31.13;;;21.08;;
24713;SDS011;12820;51.580;5.010;2023-04-21T09:32:43;28.55;;;20.17;;
24713;SDS011;12820;51.580;5.010;2023-04-21T09:37:46;27.65;;;19.63;;
24713;SDS011;12820;51.580;5.010;2023-04-21T09:42:48;29.50;;;19.67;;
24713;SDS011;12820;51.580;5.010;2023-04-21T09:47:51;27.48;;;19.17;;
24713;SDS011;12820;51.580;5.010;2023-04-21T09:52:57;27.30;;;17.58;;
24713;SDS011;12820;51.580;5.010;2023-04-21T09:58:03;24.30;;;17.27;;
24713;SDS011;12820;51.580;5.010;2023-04-21T10:03:07;24.35;;;17.70;;
24713;SDS011;12820;51.580;5.010;2023-04-21T10:08:12;24.90;;;16.85;;
24713;SDS011;12820;51.580;5.010;2023-04-21T10:13:14;21.90;;;16.05;;
24713;SDS011;12820;51.580;5.010;2023-04-21T10:18:22;23.58;;;15.88;;
24713;SDS011;12820;51.580;5.010;2023-04-21T10:23:29;22.90;;;15.27;;
24713;SDS011;12820;51.580;5.010;2023-04-21T10:34:34;19.90;;;14.60;;
24713;SDS011;12820;51.580;5.010;2023-04-21T10:39:10;19.38;;;13.45;;
24713;SDS011;12820;51.580;5.010;2023-04-21T10:44:17;16.42;;;12.63;;
24713;SDS011;12820;51.580;5.010;2023-04-21T10:49:26;17.92;;;12.85;;
24713;SDS011;12820;51.580;5.010;2023-04-21T10:54:40;18.10;;;13.02;;
24713;SDS011;12820;51.580;5.010;2023-04-21T10:59:43;16.15;;;11.25;;
24713;SDS011;12820;51.580;5.010;2023-04-21T11:04:53;15.55;;;11.93;;
24713;SDS011;12820;51.580;5.010;2023-04-21T11:10:00;15.05;;;10.60;;
24713;SDS011;12820;51.580;5.010;2023-04-21T11:15:05;18.55;;;13.18;;
24713;SDS011;12820;51.580;5.010;2023-04-21T11:20:15;16.47;;;12.50;;
24713;SDS011;12820;51.580;5.010;2023-04-21T11:25:17;15.02;;;11.43;;
24713;SDS011;12820;51.580;5.010;2023-04-21T11:30:20;16.88;;;12.80;;
24713;SDS011;12820;51.580;5.010;2023-04-21T11:35:22;19.40;;;12.10;;
24713;SDS011;12820;51.580;5.010;2023-04-21T11:40:27;16.15;;;11.98;;
24713;SDS011;12820;51.580;5.010;2023-04-21T11:45:29;11.90;;;8.90;;
24713;SDS011;12820;51.580;5.010;2023-04-21T11:50:33;18.63;;;11.95;;
24713;SDS011;12820;51.580;5.010;2023-04-21T11:55:37;13.48;;;10.13;;
24713;SDS011;12820;51.580;5.010;2023-04-21T12:00:43;13.65;;;9.52;;
24713;SDS011;12820;51.580;5.010;2023-04-21T12:05:54;13.30;;;9.70;;
24713;SDS011;12820;51.580;5.010;2023-04-21T12:10:57;12.30;;;9.18;;
24713;SDS011;12820;51.580;5.010;2023-04-21T12:16:02;9.85;;;7.70;;
24713;SDS011;12820;51.580;5.010;2023-04-21T12:21:05;11.30;;;7.35;;
24713;SDS011;12820;51.580;5.010;2023-04-21T12:26:07;10.38;;;6.63;;
24713;SDS011;12820;51.580;5.010;2023-04-21T12:31:09;9.88;;;7.57;;
24713;SDS011;12820;51.580;5.010;2023-04-21T12:36:12;10.38;;;7.93;;
24713;SDS011;12820;51.580;5.010;2023-04-21T12:41:14;10.80;;;7.88;;
24713;SDS011;12820;51.580;5.010;2023-04-21T12:46:16;12.20;;;10.07;;
24713;SDS011;12820;51.580;5.010;2023-04-21T12:51:18;15.35;;;12.15;;
24713;SDS011;12820;51.580;5.010;2023-04-21T12:56:20;15.60;;;12.43;;
24713;SDS011;12820;51.580;5.010;2023-04-21T13:01:25;14.32;;;11.55;;
24713;SDS011;12820;51.580;5.010;2023-04-21T13:06:27;15.07;;;12.70;;
24713;SDS011;12820;51.580;5.010;2023-04-21T13:11:30;20.58;;;13.70;;
24713;SDS011;12820;51.580;5.010;2023-04-21T13:16:32;15.40;;;12.65;;
24713;SDS011;12820;51.580;5.010;2023-04-21T13:21:34;14.82;;;11.88;;
24713;SDS011;12820;51.580;5.010;2023-04-21T13:26:36;12.15;;;9.13;;
24713;SDS011;12820;51.580;5.010;2023-04-21T13:31:38;13.88;;;11.07;;
24713;SDS011;12820;51.580;5.010;2023-04-21T13:36:41;14.38;;;12.15;;
24713;SDS011;12820;51.580;5.010;2023-04-21T13:41:43;14.20;;;12.00;;
24713;SDS011;12820;51.580;5.010;2023-04-21T13:46:45;13.02;;;8.90;;
24713;SDS011;12820;51.580;5.010;2023-04-21T13:51:47;16.05;;;12.27;;
24713;SDS011;12820;51.580;5.010;2023-04-21T13:56:50;13.60;;;9.98;;
24713;SDS011;12820;51.580;5.010;2023-04-21T14:01:52;10.20;;;8.27;;
24713;SDS011;12820;51.580;5.010;2023-04-21T14:06:54;15.20;;;10.52;;
24713;SDS011;12820;51.580;5.010;2023-04-21T14:11:56;16.77;;;12.07;;
24713;SDS011;12820;51.580;5.010;2023-04-21T14:16:59;14.63;;;11.90;;
24713;SDS011;12820;51.580;5.010;2023-04-21T14:22:01;14.40;;;11.63;;
24713;SDS011;12820;51.580;5.010;2023-04-21T14:27:03;20.00;;;14.80;;
24713;SDS011;12820;51.580;5.010;2023-04-21T14:32:06;20.10;;;16.00;;
24713;SDS011;12820;51.580;5.010;2023-04-21T14:37:08;20.08;;;15.68;;
24713;SDS011;12820;51.580;5.010;2023-04-21T14:42:11;24.30;;;15.95;;
24713;SDS011;12820;51.580;5.010;2023-04-21T14:47:13;16.60;;;14.18;;
24713;SDS011;12820;51.580;5.010;2023-04-21T14:52:15;17.55;;;14.13;;
24713;SDS011;12820;51.580;5.010;2023-04-21T14:57:17;20.10;;;15.23;;
24713;SDS011;12820;51.580;5.010;2023-04-21T15:02:22;15.05;;;12.63;;
24713;SDS011;12820;51.580;5.010;2023-04-21T15:07:24;17.73;;;14.43;;
24713;SDS011;12820;51.580;5.010;2023-04-21T15:12:26;21.23;;;16.73;;
24713;SDS011;12820;51.580;5.010;2023-04-21T15:17:28;22.02;;;18.23;;
24713;SDS011;12820;51.580;5.010;2023-04-21T15:22:30;18.45;;;15.93;;
24713;SDS011;12820;51.580;5.010;2023-04-21T15:27:32;19.88;;;15.40;;
24713;SDS011;12820;51.580;5.010;2023-04-21T15:32:35;22.25;;;17.25;;
24713;SDS011;12820;51.580;5.010;2023-04-21T15:37:37;24.50;;;18.92;;
24713;SDS011;12820;51.580;5.010;2023-04-21T15:42:39;20.90;;;17.75;;
24713;SDS011;12820;51.580;5.010;2023-04-21T15:47:41;22.20;;;18.02;;
24713;SDS011;12820;51.580;5.010;2023-04-21T15:52:43;23.48;;;18.20;;
24713;SDS011;12820;51.580;5.010;2023-04-21T15:57:46;20.70;;;17.27;;
24713;SDS011;12820;51.580;5.010;2023-04-21T16:02:48;23.40;;;16.77;;
24713;SDS011;12820;51.580;5.010;2023-04-21T16:07:50;22.45;;;17.67;;
24713;SDS011;12820;51.580;5.010;2023-04-21T16:12:52;23.00;;;17.58;;
24713;SDS011;12820;51.580;5.010;2023-04-21T16:17:54;25.42;;;18.63;;
24713;SDS011;12820;51.580;5.010;2023-04-21T16:22:57;24.33;;;18.77;;
24713;SDS011;12820;51.580;5.010;2023-04-21T16:27:59;21.00;;;16.27;;
24713;SDS011;12820;51.580;5.010;2023-04-21T16:33:02;22.83;;;15.88;;
24713;SDS011;12820;51.580;5.010;2023-04-21T16:38:04;23.13;;;15.80;;
24713;SDS011;12820;51.580;5.010;2023-04-21T16:43:06;21.77;;;15.38;;
24713;SDS011;12820;51.580;5.010;2023-04-21T16:48:09;20.08;;;14.07;;
24713;SDS011;12820;51.580;5.010;2023-04-21T16:53:11;18.80;;;13.63;;
24713;SDS011;12820;51.580;5.010;2023-04-21T16:58:13;18.45;;;12.73;;
24713;SDS011;12820;51.580;5.010;2023-04-21T17:03:17;18.23;;;12.57;;
24713;SDS011;12820;51.580;5.010;2023-04-21T17:08:20;16.88;;;11.98;;
24713;SDS011;12820;51.580;5.010;2023-04-21T17:13:22;20.38;;;14.77;;
24713;SDS011;12820;51.580;5.010;2023-04-21T17:18:24;16.45;;;9.85;;
24713;SDS011;12820;51.580;5.010;2023-04-21T17:23:26;19.02;;;8.13;;
24713;SDS011;12820;51.580;5.010;2023-04-21T17:28:28;11.27;;;7.85;;
24713;SDS011;12820;51.580;5.010;2023-04-21T17:33:30;12.25;;;7.68;;
24713;SDS011;12820;51.580;5.010;2023-04-21T17:38:32;13.38;;;8.93;;
24713;SDS011;12820;51.580;5.010;2023-04-21T17:43:34;13.00;;;7.95;;
24713;SDS011;12820;51.580;5.010;2023-04-21T17:48:37;11.88;;;8.30;;
24713;SDS011;12820;51.580;5.010;2023-04-21T17:53:41;32.70;;;22.15;;
24713;SDS011;12820;51.580;5.010;2023-04-21T17:58:44;17.58;;;10.60;;
24713;SDS011;12820;51.580;5.010;2023-04-21T18:03:46;13.93;;;8.63;;
24713;SDS011;12820;51.580;5.010;2023-04-21T18:08:48;15.00;;;9.75;;
24713;SDS011;12820;51.580;5.010;2023-04-21T18:13:50;19.50;;;12.95;;
24713;SDS011;12820;51.580;5.010;2023-04-21T18:18:53;16.25;;;10.40;;
24713;SDS011;12820;51.580;5.010;2023-04-21T18:23:56;14.20;;;9.20;;
24713;SDS011;12820;51.580;5.010;2023-04-21T18:28:59;16.30;;;10.35;;
24713;SDS011;12820;51.580;5.010;2023-04-21T18:34:01;14.48;;;10.50;;
24713;SDS011;12820;51.580;5.010;2023-04-21T18:39:03;15.50;;;10.45;;
24713;SDS011;12820;51.580;5.010;2023-04-21T18:44:05;19.17;;;12.77;;
24713;SDS011;12820;51.580;5.010;2023-04-21T18:49:07;96.57;;;85.55;;
24713;SDS011;12820;51.580;5.010;2023-04-21T18:54:09;21.77;;;15.85;;
24713;SDS011;12820;51.580;5.010;2023-04-21T18:59:12;21.13;;;13.27;;
24713;SDS011;12820;51.580;5.010;2023-04-21T19:04:15;19.10;;;13.65;;
24713;SDS011;12820;51.580;5.010;2023-04-21T19:09:17;23.15;;;14.73;;
24713;SDS011;12820;51.580;5.010;2023-04-21T19:14:19;27.75;;;16.90;;
24713;SDS011;12820;51.580;5.010;2023-04-21T19:19:21;25.15;;;15.50;;
24713;SDS011;12820;51.580;5.010;2023-04-21T19:24:24;27.38;;;19.02;;
24713;SDS011;12820;51.580;5.010;2023-04-21T19:29:27;29.77;;;20.80;;
24713;SDS011;12820;51.580;5.010;2023-04-21T19:34:29;28.05;;;19.45;;
24713;SDS011;12820;51.580;5.010;2023-04-21T19:39:31;23.50;;;16.85;;
24713;SDS011;12820;51.580;5.010;2023-04-21T19:44:33;23.98;;;16.55;;
24713;SDS011;12820;51.580;5.010;2023-04-21T19:49:35;24.98;;;16.35;;
24713;SDS011;12820;51.580;5.010;2023-04-21T19:54:37;29.10;;;20.42;;
24713;SDS011;12820;51.580;5.010;2023-04-21T19:59:40;29.88;;;19.98;;
24713;SDS011;12820;51.580;5.010;2023-04-21T20:04:42;23.73;;;14.98;;
24713;SDS011;12820;51.580;5.010;2023-04-21T20:09:45;23.98;;;15.15;;
24713;SDS011;12820;51.580;5.010;2023-04-21T20:14:47;19.75;;;13.23;;
24713;SDS011;12820;51.580;5.010;2023-04-21T20:19:49;18.30;;;13.25;;
24713;SDS011;12820;51.580;5.010;2023-04-21T20:24:52;15.23;;;10.85;;
24713;SDS011;12820;51.580;5.010;2023-04-21T20:29:54;15.68;;;10.63;;
24713;SDS011;12820;51.580;5.010;2023-04-21T20:34:57;26.02;;;20.27;;
24713;SDS011;12820;51.580;5.010;2023-04-21T20:40:00;20.98;;;16.02;;
24713;SDS011;12820;51.580;5.010;2023-04-21T20:45:05;3.72;;;1.25;;
24713;SDS011;12820;51.580;5.010;2023-04-21T20:50:07;26.75;;;16.45;;
24713;SDS011;12820;51.580;5.010;2023-04-21T20:55:09;27.13;;;20.27;;
24713;SDS011;12820;51.580;5.010;2023-04-21T21:00:12;28.35;;;18.38;;
24713;SDS011;12820;51.580;5.010;2023-04-21T21:05:14;27.15;;;16.80;;
24713;SDS011;12820;51.580;5.010;2023-04-21T21:10:16;25.95;;;16.52;;
24713;SDS011;12820;51.580;5.010;2023-04-21T21:15:19;24.67;;;16.90;;
24713;SDS011;12820;51.580;5.010;2023-04-21T21:20:21;25.67;;;16.63;;
24713;SDS011;12820;51.580;5.010;2023-04-21T21:25:23;25.98;;;17.23;;
24713;SDS011;12820;51.580;5.010;2023-04-21T21:30:25;27.92;;;16.77;;
24713;SDS011;12820;51.580;5.010;2023-04-21T21:35:27;29.95;;;18.25;;
24713;SDS011;12820;51.580;5.010;2023-04-21T21:40:29;27.70;;;18.60;;
24713;SDS011;12820;51.580;5.010;2023-04-21T21:45:32;27.33;;;18.73;;
24713;SDS011;12820;51.580;5.010;2023-04-21T21:50:34;28.45;;;20.17;;
24713;SDS011;12820;51.580;5.010;2023-04-21T21:55:36;30.95;;;20.30;;
24713;SDS011;12820;51.580;5.010;2023-04-21T22:00:38;59.85;;;44.97;;
24713;SDS011;12820;51.580;5.010;2023-04-21T22:05:40;40.95;;;29.52;;
24713;SDS011;12820;51.580;5.010;2023-04-21T22:10:43;40.95;;;32.08;;
24713;SDS011;12820;51.580;5.010;2023-04-21T22:15:46;37.58;;;23.80;;
24713;SDS011;12820;51.580;5.010;2023-04-21T22:20:48;33.78;;;21.63;;
24713;SDS011;12820;51.580;5.010;2023-04-21T22:25:50;29.73;;;19.95;;
24713;SDS011;12820;51.580;5.010;2023-04-21T22:30:52;33.78;;;22.67;;
24713;SDS011;12820;51.580;5.010;2023-04-21T22:35:54;33.30;;;21.38;;
24713;SDS011;12820;51.580;5.010;2023-04-21T22:40:56;30.88;;;20.73;;
24713;SDS011;12820;51.580;5.010;2023-04-21T22:45:58;31.15;;;20.27;;
24713;SDS011;12820;51.580;5.010;2023-04-21T22:51:01;27.98;;;19.88;;
24713;SDS011;12820;51.580;5.010;2023-04-21T22:56:03;32.22;;;20.83;;
24713;SDS011;12820;51.580;5.010;2023-04-21T23:01:06;31.20;;;21.17;;
24713;SDS011;12820;51.580;5.010;2023-04-21T23:06:08;30.52;;;20.77;;
24713;SDS011;12820;51.580;5.010;2023-04-21T23:11:10;32.90;;;21.73;;
24713;SDS011;12820;51.580;5.010;2023-04-21T23:16:12;32.83;;;21.65;;
24713;SDS011;12820;51.580;5.010;2023-04-21T23:21:14;36.88;;;21.48;;
24713;SDS011;12820;51.580;5.010;2023-04-21T23:26:16;30.95;;;22.13;;
24713;SDS011;12820;51.580;5.010;2023-04-21T23:31:18;35.85;;;22.55;;
24713;SDS011;12820;51.580;5.010;2023-04-21T23:36:21;30.55;;;22.25;;
24713;SDS011;12820;51.580;5.010;2023-04-21T23:41:23;36.90;;;24.15;;
24713;SDS011;12820;51.580;5.010;2023-04-21T23:46:25;34.25;;;24.20;;
24713;SDS011;12820;51.580;5.010;2023-04-21T23:51:27;37.90;;;25.25;;
24713;SDS011;12820;51.580;5.010;2023-04-21T23:56:29;39.90;;;25.83;;
